sensor_id;sensor_type;location;lat;lon;timestamp;P1;durP1;ratioP1;P2;durP2;ratioP2
2542;SDS011;1116;51.502;7.414;2023-06-14T00:00:49;6.50;;;5.97;;
2542;SDS011;1116;51.502;7.414;2023-06-14T00:03:20;6.83;;;6.13;;
2542;SDS011;1116;51.502;7.414;2023-06-14T00:05:52;7.63;;;6.83;;
2542;SDS011;1116;51.502;7.414;2023-06-14T00:08:23;7.20;;;6.13;;
2542;SDS011;1116;51.502;7.414;2023-06-14T00:10:57;8.83;;;6.60;;
2542;SDS011;1116;51.502;7.414;2023-06-14T00:13:28;9.03;;;6.73;;
2542;SDS011;1116;51.502;7.414;2023-06-14T00:15:59;7.20;;;6.60;;
2542;SDS011;1116;51.502;7.414;2023-06-14T00:18:31;7.30;;;6.50;;
2542;SDS011;1116;51.502;7.414;2023-06-14T00:21:02;9.57;;;6.90;;
2542;SDS011;1116;51.502;7.414;2023-06-14T00:23:33;7.53;;;6.93;;
2542;SDS011;1116;51.502;7.414;2023-06-14T00:26:07;6.87;;;6.17;;
2542;SDS011;1116;51.502;7.414;2023-06-14T00:28:38;7.03;;;6.33;;
2542;SDS011;1116;51.502;7.414;2023-06-14T00:31:09;7.47;;;6.77;;
2542;SDS011;1116;51.502;7.414;2023-06-14T00:33:40;7.10;;;6.40;;
2542;SDS011;1116;51.502;7.414;2023-06-14T00:36:11;8.00;;;7.30;;
2542;SDS011;1116;51.502;7.414;2023-06-14T00:38:42;7.37;;;6.10;;
2542;SDS011;1116;51.502;7.414;2023-06-14T00:41:16;8.40;;;6.03;;
2542;SDS011;1116;51.502;7.414;2023-06-14T00:43:47;8.20;;;6.27;;
2542;SDS011;1116;51.502;7.414;2023-06-14T00:46:18;6.70;;;6.10;;
2542;SDS011;1116;51.502;7.414;2023-06-14T00:48:49;6.67;;;6.07;;
2542;SDS011;1116;51.502;7.414;2023-06-14T00:51:21;6.30;;;5.60;;
2542;SDS011;1116;51.502;7.414;2023-06-14T00:53:52;6.37;;;5.77;;
2542;SDS011;1116;51.502;7.414;2023-06-14T00:56:26;6.60;;;6.00;;
2542;SDS011;1116;51.502;7.414;2023-06-14T00:58:57;7.10;;;6.40;;
2542;SDS011;1116;51.502;7.414;2023-06-14T01:01:28;6.23;;;5.70;;
2542;SDS011;1116;51.502;7.414;2023-06-14T01:04:01;10.60;;;6.80;;
2542;SDS011;1116;51.502;7.414;2023-06-14T01:06:33;8.80;;;6.37;;
2542;SDS011;1116;51.502;7.414;2023-06-14T01:09:12;6.47;;;5.93;;
2542;SDS011;1116;51.502;7.414;2023-06-14T01:11:58;6.57;;;5.90;;
2542;SDS011;1116;51.502;7.414;2023-06-14T01:14:35;7.30;;;6.63;;
2542;SDS011;1116;51.502;7.414;2023-06-14T01:17:08;9.00;;;6.40;;
2542;SDS011;1116;51.502;7.414;2023-06-14T01:19:43;7.90;;;6.30;;
2542;SDS011;1116;51.502;7.414;2023-06-14T01:22:14;7.03;;;6.43;;
2542;SDS011;1116;51.502;7.414;2023-06-14T01:24:48;6.60;;;6.00;;
2542;SDS011;1116;51.502;7.414;2023-06-14T01:27:22;7.00;;;6.30;;
2542;SDS011;1116;51.502;7.414;2023-06-14T01:29:56;7.83;;;6.90;;
2542;SDS011;1116;51.502;7.414;2023-06-14T01:32:29;7.30;;;6.07;;
2542;SDS011;1116;51.502;7.414;2023-06-14T01:35:01;6.60;;;5.87;;
2542;SDS011;1116;51.502;7.414;2023-06-14T01:37:32;6.47;;;5.87;;
2542;SDS011;1116;51.502;7.414;2023-06-14T01:40:06;6.67;;;5.93;;
2542;SDS011;1116;51.502;7.414;2023-06-14T01:42:40;7.07;;;6.37;;
2542;SDS011;1116;51.502;7.414;2023-06-14T01:45:12;7.00;;;6.00;;
2542;SDS011;1116;51.502;7.414;2023-06-14T01:47:43;7.43;;;6.17;;
2542;SDS011;1116;51.502;7.414;2023-06-14T01:50:15;10.87;;;6.50;;
2542;SDS011;1116;51.502;7.414;2023-06-14T01:52:46;8.20;;;5.90;;
2542;SDS011;1116;51.502;7.414;2023-06-14T01:55:20;6.90;;;6.17;;
2542;SDS011;1116;51.502;7.414;2023-06-14T01:57:52;6.90;;;6.20;;
2542;SDS011;1116;51.502;7.414;2023-06-14T02:00:23;9.57;;;7.00;;
2542;SDS011;1116;51.502;7.414;2023-06-14T02:02:54;6.67;;;6.10;;
2542;SDS011;1116;51.502;7.414;2023-06-14T02:05:25;7.60;;;6.60;;
2542;SDS011;1116;51.502;7.414;2023-06-14T02:07:57;8.37;;;6.40;;
2542;SDS011;1116;51.502;7.414;2023-06-14T02:10:31;6.70;;;6.00;;
2542;SDS011;1116;51.502;7.414;2023-06-14T02:13:03;7.13;;;6.43;;
2542;SDS011;1116;51.502;7.414;2023-06-14T02:15:34;6.90;;;6.20;;
2542;SDS011;1116;51.502;7.414;2023-06-14T02:18:05;7.80;;;5.90;;
2542;SDS011;1116;51.502;7.414;2023-06-14T02:20:36;7.00;;;5.90;;
2542;SDS011;1116;51.502;7.414;2023-06-14T02:23:07;6.50;;;5.90;;
2542;SDS011;1116;51.502;7.414;2023-06-14T02:25:41;6.20;;;5.60;;
2542;SDS011;1116;51.502;7.414;2023-06-14T02:28:12;7.00;;;5.57;;
2542;SDS011;1116;51.502;7.414;2023-06-14T02:30:43;7.70;;;6.10;;
2542;SDS011;1116;51.502;7.414;2023-06-14T02:33:17;6.57;;;5.50;;
2542;SDS011;1116;51.502;7.414;2023-06-14T02:35:49;5.70;;;5.20;;
2542;SDS011;1116;51.502;7.414;2023-06-14T02:38:20;5.90;;;5.40;;
2542;SDS011;1116;51.502;7.414;2023-06-14T02:40:54;6.20;;;5.60;;
2542;SDS011;1116;51.502;7.414;2023-06-14T02:43:24;5.90;;;5.10;;
2542;SDS011;1116;51.502;7.414;2023-06-14T02:45:55;6.57;;;5.73;;
2542;SDS011;1116;51.502;7.414;2023-06-14T02:48:27;6.40;;;5.27;;
2542;SDS011;1116;51.502;7.414;2023-06-14T02:50:58;5.77;;;5.27;;
2542;SDS011;1116;51.502;7.414;2023-06-14T02:53:29;6.30;;;5.30;;
2542;SDS011;1116;51.502;7.414;2023-06-14T02:56:02;7.30;;;5.77;;
2542;SDS011;1116;51.502;7.414;2023-06-14T02:58:34;6.20;;;5.60;;
2542;SDS011;1116;51.502;7.414;2023-06-14T03:01:07;6.90;;;5.27;;
2542;SDS011;1116;51.502;7.414;2023-06-14T03:03:40;6.13;;;5.63;;
2542;SDS011;1116;51.502;7.414;2023-06-14T03:06:11;4.57;;;4.17;;
2542;SDS011;1116;51.502;7.414;2023-06-14T03:08:44;5.63;;;5.00;;
2542;SDS011;1116;51.502;7.414;2023-06-14T03:11:19;5.30;;;4.80;;
2542;SDS011;1116;51.502;7.414;2023-06-14T03:13:50;5.63;;;5.10;;
2542;SDS011;1116;51.502;7.414;2023-06-14T03:16:22;5.50;;;5.00;;
2542;SDS011;1116;51.502;7.414;2023-06-14T03:18:56;6.87;;;4.80;;
2542;SDS011;1116;51.502;7.414;2023-06-14T03:21:27;6.33;;;5.13;;
2542;SDS011;1116;51.502;7.414;2023-06-14T03:23:58;6.83;;;4.87;;
2542;SDS011;1116;51.502;7.414;2023-06-14T03:26:33;6.90;;;5.33;;
2542;SDS011;1116;51.502;7.414;2023-06-14T03:29:05;5.33;;;4.93;;
2542;SDS011;1116;51.502;7.414;2023-06-14T03:31:39;7.23;;;5.50;;
2542;SDS011;1116;51.502;7.414;2023-06-14T03:34:26;7.27;;;5.40;;
2542;SDS011;1116;51.502;7.414;2023-06-14T03:36:57;5.43;;;4.90;;
2542;SDS011;1116;51.502;7.414;2023-06-14T03:39:28;6.60;;;5.50;;
2542;SDS011;1116;51.502;7.414;2023-06-14T03:42:02;6.13;;;5.33;;
2542;SDS011;1116;51.502;7.414;2023-06-14T03:44:34;5.37;;;4.77;;
2542;SDS011;1116;51.502;7.414;2023-06-14T03:47:06;8.60;;;5.27;;
2542;SDS011;1116;51.502;7.414;2023-06-14T03:49:37;5.00;;;4.50;;
2542;SDS011;1116;51.502;7.414;2023-06-14T03:52:08;5.40;;;4.90;;
2542;SDS011;1116;51.502;7.414;2023-06-14T03:54:41;8.90;;;4.70;;
2542;SDS011;1116;51.502;7.414;2023-06-14T03:57:19;5.80;;;5.30;;
2542;SDS011;1116;51.502;7.414;2023-06-14T03:59:53;9.13;;;5.43;;
2542;SDS011;1116;51.502;7.414;2023-06-14T04:02:24;5.27;;;4.53;;
2542;SDS011;1116;51.502;7.414;2023-06-14T04:04:56;5.07;;;4.53;;
2542;SDS011;1116;51.502;7.414;2023-06-14T04:07:28;5.10;;;4.70;;
2542;SDS011;1116;51.502;7.414;2023-06-14T04:09:59;5.00;;;4.50;;
2542;SDS011;1116;51.502;7.414;2023-06-14T04:12:33;5.83;;;5.00;;
2542;SDS011;1116;51.502;7.414;2023-06-14T04:15:04;5.03;;;4.53;;
2542;SDS011;1116;51.502;7.414;2023-06-14T04:17:48;4.87;;;4.40;;
2542;SDS011;1116;51.502;7.414;2023-06-14T04:20:19;7.53;;;4.80;;
2542;SDS011;1116;51.502;7.414;2023-06-14T04:22:51;6.63;;;5.23;;
2542;SDS011;1116;51.502;7.414;2023-06-14T04:25:24;6.80;;;4.60;;
2542;SDS011;1116;51.502;7.414;2023-06-14T04:28:00;5.30;;;4.80;;
2542;SDS011;1116;51.502;7.414;2023-06-14T04:30:31;6.33;;;4.30;;
2542;SDS011;1116;51.502;7.414;2023-06-14T04:33:03;7.83;;;4.80;;
2542;SDS011;1116;51.502;7.414;2023-06-14T04:35:35;7.73;;;4.73;;
2542;SDS011;1116;51.502;7.414;2023-06-14T04:38:08;6.73;;;4.73;;
2542;SDS011;1116;51.502;7.414;2023-06-14T04:40:39;5.60;;;4.17;;
2542;SDS011;1116;51.502;7.414;2023-06-14T04:43:14;4.87;;;4.23;;
2542;SDS011;1116;51.502;7.414;2023-06-14T04:45:46;5.13;;;3.90;;
2542;SDS011;1116;51.502;7.414;2023-06-14T04:48:17;5.93;;;4.20;;
2542;SDS011;1116;51.502;7.414;2023-06-14T04:50:48;7.47;;;4.37;;
2542;SDS011;1116;51.502;7.414;2023-06-14T04:53:21;5.20;;;4.63;;
2542;SDS011;1116;51.502;7.414;2023-06-14T04:55:56;5.40;;;4.10;;
2542;SDS011;1116;51.502;7.414;2023-06-14T04:58:30;8.67;;;4.70;;
2542;SDS011;1116;51.502;7.414;2023-06-14T05:01:02;4.37;;;3.97;;
2542;SDS011;1116;51.502;7.414;2023-06-14T05:03:33;7.13;;;4.37;;
2542;SDS011;1116;51.502;7.414;2023-06-14T05:06:04;4.50;;;3.83;;
2542;SDS011;1116;51.502;7.414;2023-06-14T05:08:35;4.80;;;3.93;;
2542;SDS011;1116;51.502;7.414;2023-06-14T05:11:06;6.00;;;4.00;;
2542;SDS011;1116;51.502;7.414;2023-06-14T05:13:40;5.37;;;4.03;;
2542;SDS011;1116;51.502;7.414;2023-06-14T05:16:12;7.80;;;4.50;;
2542;SDS011;1116;51.502;7.414;2023-06-14T05:18:46;5.33;;;3.80;;
2542;SDS011;1116;51.502;7.414;2023-06-14T05:21:18;6.03;;;4.13;;
2542;SDS011;1116;51.502;7.414;2023-06-14T05:23:49;4.00;;;3.60;;
2542;SDS011;1116;51.502;7.414;2023-06-14T05:26:21;6.67;;;3.80;;
2542;SDS011;1116;51.502;7.414;2023-06-14T05:28:58;7.27;;;4.23;;
2542;SDS011;1116;51.502;7.414;2023-06-14T05:31:31;6.20;;;3.93;;
2542;SDS011;1116;51.502;7.414;2023-06-14T05:34:02;10.20;;;4.00;;
2542;SDS011;1116;51.502;7.414;2023-06-14T05:36:33;5.73;;;3.53;;
2542;SDS011;1116;51.502;7.414;2023-06-14T05:39:04;6.67;;;3.70;;
2542;SDS011;1116;51.502;7.414;2023-06-14T05:41:36;6.60;;;3.87;;
2542;SDS011;1116;51.502;7.414;2023-06-14T05:44:09;4.57;;;3.60;;
2542;SDS011;1116;51.502;7.414;2023-06-14T05:46:43;4.30;;;3.77;;
2542;SDS011;1116;51.502;7.414;2023-06-14T05:49:14;4.60;;;3.87;;
2542;SDS011;1116;51.502;7.414;2023-06-14T05:51:45;8.93;;;3.70;;
2542;SDS011;1116;51.502;7.414;2023-06-14T05:54:16;6.57;;;3.83;;
2542;SDS011;1116;51.502;7.414;2023-06-14T05:56:47;5.00;;;3.60;;
2542;SDS011;1116;51.502;7.414;2023-06-14T05:59:20;4.10;;;3.70;;
2542;SDS011;1116;51.502;7.414;2023-06-14T06:01:51;6.57;;;3.70;;
2542;SDS011;1116;51.502;7.414;2023-06-14T06:04:22;9.37;;;3.90;;
2542;SDS011;1116;51.502;7.414;2023-06-14T06:06:53;5.20;;;3.50;;
2542;SDS011;1116;51.502;7.414;2023-06-14T06:09:24;6.23;;;4.20;;
2542;SDS011;1116;51.502;7.414;2023-06-14T06:11:55;4.50;;;3.60;;
2542;SDS011;1116;51.502;7.414;2023-06-14T06:14:29;3.97;;;3.60;;
2542;SDS011;1116;51.502;7.414;2023-06-14T06:17:00;5.87;;;3.83;;
2542;SDS011;1116;51.502;7.414;2023-06-14T06:19:31;6.80;;;3.57;;
2542;SDS011;1116;51.502;7.414;2023-06-14T06:22:02;4.80;;;3.93;;
2542;SDS011;1116;51.502;7.414;2023-06-14T06:24:35;8.33;;;3.93;;
2542;SDS011;1116;51.502;7.414;2023-06-14T06:27:06;5.30;;;3.47;;
2542;SDS011;1116;51.502;7.414;2023-06-14T06:29:42;5.70;;;3.60;;
2542;SDS011;1116;51.502;7.414;2023-06-14T06:32:13;15.80;;;4.00;;
2542;SDS011;1116;51.502;7.414;2023-06-14T06:34:45;3.80;;;3.10;;
2542;SDS011;1116;51.502;7.414;2023-06-14T06:37:16;8.73;;;3.47;;
2542;SDS011;1116;51.502;7.414;2023-06-14T06:39:47;10.93;;;3.67;;
2542;SDS011;1116;51.502;7.414;2023-06-14T06:42:18;5.73;;;4.17;;
2542;SDS011;1116;51.502;7.414;2023-06-14T06:44:52;5.07;;;3.87;;
2542;SDS011;1116;51.502;7.414;2023-06-14T06:47:23;7.80;;;3.17;;
2542;SDS011;1116;51.502;7.414;2023-06-14T06:49:54;3.53;;;3.00;;
2542;SDS011;1116;51.502;7.414;2023-06-14T06:52:25;5.03;;;3.23;;
2542;SDS011;1116;51.502;7.414;2023-06-14T06:54:56;4.27;;;2.70;;
2542;SDS011;1116;51.502;7.414;2023-06-14T06:57:28;3.17;;;2.40;;
2542;SDS011;1116;51.502;7.414;2023-06-14T07:00:02;4.60;;;3.20;;
2542;SDS011;1116;51.502;7.414;2023-06-14T07:02:35;7.27;;;3.13;;
2542;SDS011;1116;51.502;7.414;2023-06-14T07:05:07;3.23;;;2.70;;
2542;SDS011;1116;51.502;7.414;2023-06-14T07:07:38;7.13;;;3.37;;
2542;SDS011;1116;51.502;7.414;2023-06-14T07:10:09;4.13;;;2.83;;
2542;SDS011;1116;51.502;7.414;2023-06-14T07:12:40;3.50;;;3.20;;
2542;SDS011;1116;51.502;7.414;2023-06-14T07:15:14;2.67;;;2.47;;
2542;SDS011;1116;51.502;7.414;2023-06-14T07:17:47;2.90;;;2.30;;
2542;SDS011;1116;51.502;7.414;2023-06-14T07:20:18;3.83;;;3.00;;
2542;SDS011;1116;51.502;7.414;2023-06-14T07:22:50;3.47;;;2.40;;
2542;SDS011;1116;51.502;7.414;2023-06-14T07:25:21;3.10;;;2.60;;
2542;SDS011;1116;51.502;7.414;2023-06-14T07:27:52;4.80;;;2.70;;
2542;SDS011;1116;51.502;7.414;2023-06-14T07:30:26;6.50;;;2.87;;
2542;SDS011;1116;51.502;7.414;2023-06-14T07:32:57;5.13;;;2.63;;
2542;SDS011;1116;51.502;7.414;2023-06-14T07:35:28;3.00;;;2.70;;
2542;SDS011;1116;51.502;7.414;2023-06-14T07:37:59;3.47;;;2.67;;
2542;SDS011;1116;51.502;7.414;2023-06-14T07:40:30;6.37;;;2.70;;
2542;SDS011;1116;51.502;7.414;2023-06-14T07:43:01;5.17;;;2.90;;
2542;SDS011;1116;51.502;7.414;2023-06-14T07:45:35;5.57;;;2.70;;
2542;SDS011;1116;51.502;7.414;2023-06-14T07:48:20;2.93;;;2.67;;
2542;SDS011;1116;51.502;7.414;2023-06-14T07:50:55;5.50;;;3.30;;
2542;SDS011;1116;51.502;7.414;2023-06-14T07:53:26;3.60;;;2.20;;
2542;SDS011;1116;51.502;7.414;2023-06-14T07:55:58;3.07;;;2.43;;
2542;SDS011;1116;51.502;7.414;2023-06-14T07:58:30;3.50;;;1.93;;
2542;SDS011;1116;51.502;7.414;2023-06-14T08:01:04;4.13;;;2.47;;
2542;SDS011;1116;51.502;7.414;2023-06-14T08:03:35;6.17;;;2.63;;
2542;SDS011;1116;51.502;7.414;2023-06-14T08:06:07;2.77;;;2.57;;
2542;SDS011;1116;51.502;7.414;2023-06-14T08:08:38;2.90;;;2.50;;
2542;SDS011;1116;51.502;7.414;2023-06-14T08:11:09;2.20;;;2.00;;
2542;SDS011;1116;51.502;7.414;2023-06-14T08:13:40;2.60;;;2.30;;
2542;SDS011;1116;51.502;7.414;2023-06-14T08:16:13;2.57;;;2.13;;
2542;SDS011;1116;51.502;7.414;2023-06-14T08:18:44;4.07;;;2.00;;
2542;SDS011;1116;51.502;7.414;2023-06-14T08:21:15;2.10;;;1.90;;
2542;SDS011;1116;51.502;7.414;2023-06-14T08:23:46;4.63;;;1.97;;
2542;SDS011;1116;51.502;7.414;2023-06-14T08:26:21;2.30;;;2.03;;
2542;SDS011;1116;51.502;7.414;2023-06-14T08:28:56;2.90;;;1.70;;
2542;SDS011;1116;51.502;7.414;2023-06-14T08:31:30;1.77;;;1.67;;
2542;SDS011;1116;51.502;7.414;2023-06-14T08:34:02;2.43;;;1.97;;
2542;SDS011;1116;51.502;7.414;2023-06-14T08:36:34;2.63;;;1.50;;
2542;SDS011;1116;51.502;7.414;2023-06-14T08:39:05;2.13;;;2.00;;
2542;SDS011;1116;51.502;7.414;2023-06-14T08:41:37;2.10;;;2.00;;
2542;SDS011;1116;51.502;7.414;2023-06-14T08:44:08;4.83;;;2.03;;
2542;SDS011;1116;51.502;7.414;2023-06-14T08:46:42;2.23;;;1.83;;
2542;SDS011;1116;51.502;7.414;2023-06-14T08:49:13;4.10;;;1.97;;
2542;SDS011;1116;51.502;7.414;2023-06-14T08:51:47;3.43;;;1.80;;
2542;SDS011;1116;51.502;7.414;2023-06-14T08:54:25;2.20;;;1.90;;
2542;SDS011;1116;51.502;7.414;2023-06-14T08:56:57;4.13;;;1.77;;
2542;SDS011;1116;51.502;7.414;2023-06-14T08:59:29;3.33;;;1.70;;
2542;SDS011;1116;51.502;7.414;2023-06-14T09:02:09;4.40;;;1.70;;
2542;SDS011;1116;51.502;7.414;2023-06-14T09:04:42;2.93;;;1.90;;
2542;SDS011;1116;51.502;7.414;2023-06-14T09:07:13;1.90;;;1.80;;
2542;SDS011;1116;51.502;7.414;2023-06-14T09:09:44;1.87;;;1.30;;
2542;SDS011;1116;51.502;7.414;2023-06-14T09:12:32;3.97;;;1.30;;
2542;SDS011;1116;51.502;7.414;2023-06-14T09:15:04;1.60;;;1.50;;
2542;SDS011;1116;51.502;7.414;2023-06-14T09:17:39;4.37;;;1.50;;
2542;SDS011;1116;51.502;7.414;2023-06-14T09:20:11;2.80;;;1.23;;
2542;SDS011;1116;51.502;7.414;2023-06-14T09:22:47;8.10;;;1.70;;
2542;SDS011;1116;51.502;7.414;2023-06-14T09:25:18;2.50;;;1.40;;
2542;SDS011;1116;51.502;7.414;2023-06-14T09:28:06;2.63;;;1.40;;
2542;SDS011;1116;51.502;7.414;2023-06-14T09:30:38;2.43;;;1.40;;
2542;SDS011;1116;51.502;7.414;2023-06-14T09:33:11;2.03;;;1.50;;
2542;SDS011;1116;51.502;7.414;2023-06-14T09:35:50;3.00;;;1.90;;
2542;SDS011;1116;51.502;7.414;2023-06-14T09:38:22;3.13;;;1.53;;
2542;SDS011;1116;51.502;7.414;2023-06-14T09:40:55;4.33;;;2.00;;
2542;SDS011;1116;51.502;7.414;2023-06-14T09:43:27;3.53;;;2.10;;
2542;SDS011;1116;51.502;7.414;2023-06-14T09:46:01;3.90;;;1.53;;
2542;SDS011;1116;51.502;7.414;2023-06-14T09:48:36;5.23;;;1.93;;
2542;SDS011;1116;51.502;7.414;2023-06-14T09:51:10;5.30;;;2.03;;
2542;SDS011;1116;51.502;7.414;2023-06-14T09:53:46;2.87;;;1.93;;
2542;SDS011;1116;51.502;7.414;2023-06-14T09:56:23;2.20;;;1.77;;
2542;SDS011;1116;51.502;7.414;2023-06-14T09:58:57;3.83;;;1.93;;
2542;SDS011;1116;51.502;7.414;2023-06-14T10:01:35;3.87;;;1.80;;
2542;SDS011;1116;51.502;7.414;2023-06-14T10:04:14;2.10;;;1.70;;
2542;SDS011;1116;51.502;7.414;2023-06-14T10:06:50;2.33;;;1.90;;
2542;SDS011;1116;51.502;7.414;2023-06-14T10:09:23;3.80;;;2.20;;
2542;SDS011;1116;51.502;7.414;2023-06-14T10:11:56;5.87;;;2.40;;
2542;SDS011;1116;51.502;7.414;2023-06-14T10:14:28;5.13;;;1.90;;
2542;SDS011;1116;51.502;7.414;2023-06-14T10:17:00;3.97;;;1.87;;
2542;SDS011;1116;51.502;7.414;2023-06-14T10:19:40;4.30;;;1.80;;
2542;SDS011;1116;51.502;7.414;2023-06-14T10:22:17;2.40;;;1.67;;
2542;SDS011;1116;51.502;7.414;2023-06-14T10:24:52;2.00;;;1.90;;
2542;SDS011;1116;51.502;7.414;2023-06-14T10:27:23;3.03;;;1.63;;
2542;SDS011;1116;51.502;7.414;2023-06-14T10:30:04;1.57;;;1.20;;
2542;SDS011;1116;51.502;7.414;2023-06-14T10:35:44;7.17;;;1.67;;
2542;SDS011;1116;51.502;7.414;2023-06-14T10:38:15;2.07;;;1.70;;
2542;SDS011;1116;51.502;7.414;2023-06-14T10:41:02;7.13;;;2.07;;
2542;SDS011;1116;51.502;7.414;2023-06-14T10:43:33;2.10;;;1.80;;
2542;SDS011;1116;51.502;7.414;2023-06-14T10:46:11;3.73;;;1.70;;
2542;SDS011;1116;51.502;7.414;2023-06-14T10:48:50;1.60;;;1.40;;
2542;SDS011;1116;51.502;7.414;2023-06-14T10:51:30;1.87;;;1.50;;
2542;SDS011;1116;51.502;7.414;2023-06-14T10:54:13;2.40;;;1.60;;
2542;SDS011;1116;51.502;7.414;2023-06-14T10:56:45;2.40;;;1.73;;
2542;SDS011;1116;51.502;7.414;2023-06-14T10:59:17;3.33;;;1.80;;
2542;SDS011;1116;51.502;7.414;2023-06-14T11:01:52;2.07;;;1.70;;
2542;SDS011;1116;51.502;7.414;2023-06-14T11:04:34;4.70;;;1.93;;
2542;SDS011;1116;51.502;7.414;2023-06-14T11:07:26;3.33;;;2.10;;
2542;SDS011;1116;51.502;7.414;2023-06-14T11:10:10;2.67;;;2.30;;
2542;SDS011;1116;51.502;7.414;2023-06-14T11:12:55;2.80;;;2.10;;
2542;SDS011;1116;51.502;7.414;2023-06-14T11:15:29;3.97;;;2.50;;
2542;SDS011;1116;51.502;7.414;2023-06-14T11:18:01;12.93;;;3.13;;
2542;SDS011;1116;51.502;7.414;2023-06-14T11:20:33;3.30;;;2.20;;
2542;SDS011;1116;51.502;7.414;2023-06-14T11:23:07;2.40;;;2.20;;
2542;SDS011;1116;51.502;7.414;2023-06-14T11:25:38;4.73;;;2.23;;
2542;SDS011;1116;51.502;7.414;2023-06-14T11:28:09;3.60;;;2.63;;
2542;SDS011;1116;51.502;7.414;2023-06-14T11:30:40;2.70;;;1.90;;
2542;SDS011;1116;51.502;7.414;2023-06-14T11:33:11;2.47;;;1.80;;
2542;SDS011;1116;51.502;7.414;2023-06-14T11:35:46;3.20;;;1.97;;
2542;SDS011;1116;51.502;7.414;2023-06-14T11:38:20;2.67;;;2.47;;
2542;SDS011;1116;51.502;7.414;2023-06-14T11:40:51;2.60;;;2.40;;
2542;SDS011;1116;51.502;7.414;2023-06-14T11:43:22;2.37;;;2.17;;
2542;SDS011;1116;51.502;7.414;2023-06-14T11:45:53;6.60;;;2.30;;
2542;SDS011;1116;51.502;7.414;2023-06-14T11:48:38;3.77;;;2.30;;
2542;SDS011;1116;51.502;7.414;2023-06-14T11:51:14;5.07;;;2.57;;
2542;SDS011;1116;51.502;7.414;2023-06-14T11:54:06;8.43;;;2.37;;
2542;SDS011;1116;51.502;7.414;2023-06-14T11:56:39;4.90;;;2.30;;
2542;SDS011;1116;51.502;7.414;2023-06-14T11:59:11;6.03;;;2.43;;
2542;SDS011;1116;51.502;7.414;2023-06-14T12:01:44;5.97;;;2.50;;
2542;SDS011;1116;51.502;7.414;2023-06-14T12:04:22;4.70;;;2.93;;
2542;SDS011;1116;51.502;7.414;2023-06-14T12:06:54;4.10;;;2.10;;
2542;SDS011;1116;51.502;7.414;2023-06-14T12:09:28;2.73;;;2.37;;
2542;SDS011;1116;51.502;7.414;2023-06-14T12:12:00;4.17;;;2.40;;
2542;SDS011;1116;51.502;7.414;2023-06-14T12:14:31;3.73;;;2.30;;
2542;SDS011;1116;51.502;7.414;2023-06-14T12:17:03;1.90;;;1.80;;
2542;SDS011;1116;51.502;7.414;2023-06-14T12:19:41;2.20;;;2.00;;
2542;SDS011;1116;51.502;7.414;2023-06-14T12:22:13;5.47;;;2.47;;
2542;SDS011;1116;51.502;7.414;2023-06-14T12:24:47;2.57;;;1.93;;
2542;SDS011;1116;51.502;7.414;2023-06-14T12:27:18;5.73;;;2.30;;
2542;SDS011;1116;51.502;7.414;2023-06-14T12:30:00;2.30;;;2.10;;
2542;SDS011;1116;51.502;7.414;2023-06-14T12:32:32;2.33;;;2.13;;
2542;SDS011;1116;51.502;7.414;2023-06-14T12:35:04;2.77;;;2.47;;
2542;SDS011;1116;51.502;7.414;2023-06-14T12:37:35;2.97;;;2.37;;
2542;SDS011;1116;51.502;7.414;2023-06-14T12:40:10;3.00;;;2.20;;
2542;SDS011;1116;51.502;7.414;2023-06-14T12:42:42;2.27;;;2.03;;
2542;SDS011;1116;51.502;7.414;2023-06-14T12:45:15;3.33;;;2.00;;
2542;SDS011;1116;51.502;7.414;2023-06-14T12:47:46;3.10;;;2.30;;
2542;SDS011;1116;51.502;7.414;2023-06-14T12:50:17;2.47;;;2.10;;
2542;SDS011;1116;51.502;7.414;2023-06-14T12:52:52;4.73;;;2.07;;
2542;SDS011;1116;51.502;7.414;2023-06-14T12:55:26;3.80;;;2.20;;
2542;SDS011;1116;51.502;7.414;2023-06-14T12:57:57;4.30;;;2.57;;
2542;SDS011;1116;51.502;7.414;2023-06-14T13:00:28;8.27;;;2.30;;
2542;SDS011;1116;51.502;7.414;2023-06-14T13:03:00;4.47;;;2.10;;
2542;SDS011;1116;51.502;7.414;2023-06-14T13:05:31;3.63;;;2.33;;
2542;SDS011;1116;51.502;7.414;2023-06-14T13:08:02;2.30;;;2.10;;
2542;SDS011;1116;51.502;7.414;2023-06-14T13:10:36;3.60;;;2.27;;
2542;SDS011;1116;51.502;7.414;2023-06-14T13:13:07;2.57;;;2.23;;
2542;SDS011;1116;51.502;7.414;2023-06-14T13:15:39;2.30;;;2.10;;
2542;SDS011;1116;51.502;7.414;2023-06-14T13:18:11;4.50;;;2.57;;
2542;SDS011;1116;51.502;7.414;2023-06-14T13:20:43;3.00;;;2.60;;
2542;SDS011;1116;51.502;7.414;2023-06-14T13:23:15;3.23;;;2.33;;
2542;SDS011;1116;51.502;7.414;2023-06-14T13:25:49;2.50;;;2.10;;
2542;SDS011;1116;51.502;7.414;2023-06-14T13:28:20;2.90;;;2.60;;
2542;SDS011;1116;51.502;7.414;2023-06-14T13:30:51;4.47;;;2.60;;
2542;SDS011;1116;51.502;7.414;2023-06-14T13:33:23;2.50;;;1.90;;
2542;SDS011;1116;51.502;7.414;2023-06-14T13:35:54;4.43;;;2.50;;
2542;SDS011;1116;51.502;7.414;2023-06-14T13:38:25;6.60;;;2.80;;
2542;SDS011;1116;51.502;7.414;2023-06-14T13:40:59;5.30;;;2.70;;
2542;SDS011;1116;51.502;7.414;2023-06-14T13:43:30;3.17;;;2.50;;
2542;SDS011;1116;51.502;7.414;2023-06-14T13:46:01;2.93;;;2.33;;
2542;SDS011;1116;51.502;7.414;2023-06-14T13:48:32;4.40;;;2.30;;
2542;SDS011;1116;51.502;7.414;2023-06-14T13:51:03;3.20;;;2.60;;
2542;SDS011;1116;51.502;7.414;2023-06-14T13:53:34;4.80;;;2.47;;
2542;SDS011;1116;51.502;7.414;2023-06-14T13:56:10;5.33;;;2.57;;
2542;SDS011;1116;51.502;7.414;2023-06-14T13:58:41;3.83;;;2.40;;
2542;SDS011;1116;51.502;7.414;2023-06-14T14:01:12;3.00;;;2.60;;
2542;SDS011;1116;51.502;7.414;2023-06-14T14:03:45;4.10;;;2.30;;
2542;SDS011;1116;51.502;7.414;2023-06-14T14:06:17;4.10;;;2.60;;
2542;SDS011;1116;51.502;7.414;2023-06-14T14:08:48;4.17;;;2.37;;
2542;SDS011;1116;51.502;7.414;2023-06-14T14:11:22;3.80;;;2.60;;
2542;SDS011;1116;51.502;7.414;2023-06-14T14:13:53;8.37;;;2.97;;
2542;SDS011;1116;51.502;7.414;2023-06-14T14:16:25;7.77;;;3.10;;
2542;SDS011;1116;51.502;7.414;2023-06-14T14:18:58;5.53;;;2.83;;
2542;SDS011;1116;51.502;7.414;2023-06-14T14:21:29;2.97;;;2.67;;
2542;SDS011;1116;51.502;7.414;2023-06-14T14:24:01;2.73;;;2.53;;
2542;SDS011;1116;51.502;7.414;2023-06-14T14:26:38;2.60;;;2.40;;
2542;SDS011;1116;51.502;7.414;2023-06-14T14:29:09;2.63;;;2.43;;
2542;SDS011;1116;51.502;7.414;2023-06-14T14:31:41;2.40;;;2.20;;
2542;SDS011;1116;51.502;7.414;2023-06-14T14:34:12;2.93;;;2.57;;
2542;SDS011;1116;51.502;7.414;2023-06-14T14:36:43;5.50;;;2.93;;
2542;SDS011;1116;51.502;7.414;2023-06-14T14:39:14;4.80;;;2.40;;
2542;SDS011;1116;51.502;7.414;2023-06-14T14:41:48;2.63;;;2.43;;
2542;SDS011;1116;51.502;7.414;2023-06-14T14:44:20;2.80;;;2.50;;
2542;SDS011;1116;51.502;7.414;2023-06-14T14:46:51;3.30;;;2.63;;
2542;SDS011;1116;51.502;7.414;2023-06-14T14:49:22;3.80;;;2.50;;
2542;SDS011;1116;51.502;7.414;2023-06-14T14:51:53;2.90;;;2.70;;
2542;SDS011;1116;51.502;7.414;2023-06-14T14:54:43;3.00;;;2.60;;
2542;SDS011;1116;51.502;7.414;2023-06-14T14:57:16;4.30;;;2.63;;
2542;SDS011;1116;51.502;7.414;2023-06-14T14:59:47;2.57;;;2.33;;
2542;SDS011;1116;51.502;7.414;2023-06-14T15:02:18;3.50;;;3.10;;
2542;SDS011;1116;51.502;7.414;2023-06-14T15:04:51;3.30;;;3.10;;
2542;SDS011;1116;51.502;7.414;2023-06-14T15:07:25;3.27;;;2.30;;
2542;SDS011;1116;51.502;7.414;2023-06-14T15:09:55;3.47;;;3.17;;
2542;SDS011;1116;51.502;7.414;2023-06-14T15:12:29;4.00;;;3.70;;
2542;SDS011;1116;51.502;7.414;2023-06-14T15:15:00;3.07;;;2.30;;
2542;SDS011;1116;51.502;7.414;2023-06-14T15:17:31;3.90;;;3.60;;
2542;SDS011;1116;51.502;7.414;2023-06-14T15:20:02;2.93;;;2.60;;
2542;SDS011;1116;51.502;7.414;2023-06-14T15:22:34;4.37;;;2.60;;
2542;SDS011;1116;51.502;7.414;2023-06-14T15:25:06;3.67;;;3.37;;
2542;SDS011;1116;51.502;7.414;2023-06-14T15:27:43;4.83;;;3.97;;
2542;SDS011;1116;51.502;7.414;2023-06-14T15:30:17;3.50;;;3.20;;
2542;SDS011;1116;51.502;7.414;2023-06-14T15:32:48;4.13;;;3.33;;
2542;SDS011;1116;51.502;7.414;2023-06-14T15:35:19;7.37;;;2.70;;
2542;SDS011;1116;51.502;7.414;2023-06-14T15:37:50;4.40;;;2.97;;
2542;SDS011;1116;51.502;7.414;2023-06-14T15:40:22;9.70;;;8.40;;
2542;SDS011;1116;51.502;7.414;2023-06-14T15:42:56;4.67;;;2.97;;
2542;SDS011;1116;51.502;7.414;2023-06-14T15:45:27;9.00;;;8.20;;
2542;SDS011;1116;51.502;7.414;2023-06-14T15:47:58;3.87;;;2.60;;
2542;SDS011;1116;51.502;7.414;2023-06-14T15:50:30;4.40;;;2.93;;
2542;SDS011;1116;51.502;7.414;2023-06-14T15:53:01;3.83;;;3.50;;